Terminal Aerodrome Forecast
Issued by NWS Lake Charles, LA

Home | Current Version | Previous Version | Text Only | Print | Product List | Glossary On
Versions: 1 2 3 4 5 6 7 8 9 10 11 12 13 14 15 16 17 18
433
FTUS44 KLCH 302334
TAFLFT
TAF
KLFT 302334Z 0100/0124 18008KT P6SM FEW018 SCT025 BKN040
     FM010400 18006KT P6SM BKN012
     FM010800 VRB03KT 6SM BR VCSH BKN005
     FM011200 16006KT P6SM VCSH SCT007 OVC015 PROB30 0112/0116 3SM
      SHRA BKN020
     FM011600 18010KT P6SM VCSH SCT020 BKN035
      TEMPO 0116/0120 3SM SHRA BKN020 OVC030=

USA.gov is the U.S. government's official web portal to all federal, state and local government web resources and services.